Time;durP1;ratioP1;P1;durP2;ratioP2;P2;SDS_P1;SDS_P2;PMS_P1;PMS_P2;Temp;Humidity;BMP_temperature;BMP_pressure;BME280_temperature;BME280_humidity;BME280_pressure;Samples;Min_cycle;Max_cycle;Signal;HPM_P1;HPM_P2
2021/11/28 00:01:42;;;;;;;2.10;1.23;;;;;;;3.73;86.93;94220.69;5055219;28;20207;-69
2021/11/28 00:04:09;;;;;;;2.13;1.10;;;;;;;3.57;86.23;94220.13;5055518;28;20228;-69
2021/11/28 00:06:38;;;;;;;1.83;1.10;;;;;;;3.55;86.68;94213.47;5055909;28;20208;-69
2021/11/28 00:12:12;;;;;;;0.90;0.90;;;;;;;3.63;85.90;94209.75;4995481;28;20633;-69
2021/11/28 00:14:41;;;;;;;0.87;0.87;;;;;;;3.67;86.03;94215.41;4995484;28;20778;-69
2021/11/28 00:17:10;;;;;;;0.63;0.63;;;;;;;3.65;86.21;94207.81;5024682;28;20211;-69
2021/11/28 00:19:37;;;;;;;1.60;1.37;;;;;;;3.49;86.53;94202.00;5056000;28;20207;-69
2021/11/28 00:22:04;;;;;;;2.10;1.47;;;;;;;3.50;85.97;94202.81;5055626;28;20856;-69
2021/11/28 00:24:30;;;;;;;1.50;1.40;;;;;;;3.45;85.83;94205.97;5054808;28;20227;-67
2021/11/28 00:26:57;;;;;;;0.97;0.87;;;;;;;3.25;86.35;94211.94;5054716;28;20197;-67
2021/11/28 00:29:23;;;;;;;0.77;0.77;;;;;;;3.25;86.26;94206.72;5059278;28;20747;-68
2021/11/28 00:31:50;;;;;;;1.30;1.10;;;;;;;3.33;86.01;94201.41;5058910;28;20215;-69
2021/11/28 00:34:17;;;;;;;0.40;0.40;;;;;;;3.68;85.28;94204.81;5058373;28;20812;-68
2021/11/28 00:36:44;;;;;;;1.13;0.87;;;;;;;3.47;85.74;94190.94;5059859;28;20200;-71
2021/11/28 00:39:11;;;;;;;2.07;0.90;;;;;;;3.41;85.73;94178.69;5059724;28;20200;-71
2021/11/28 00:41:37;;;;;;;2.53;1.57;;;;;;;3.41;86.29;94190.88;5058987;28;20207;-68
2021/11/28 00:44:04;;;;;;;0.63;0.63;;;;;;;3.37;86.62;94192.25;5058887;28;20231;-69
2021/11/28 00:46:32;;;;;;;1.63;1.53;;;;;;;3.24;86.32;94198.09;5059263;28;20209;-69
2021/11/28 00:48:59;;;;;;;1.10;1.00;;;;;;;3.15;87.08;94198.41;5059392;28;20206;-67
2021/11/28 00:51:48;;;;;;;0.93;0.73;;;;;;;3.51;87.05;94209.63;5059450;28;20201;-70
2021/11/28 00:54:15;;;;;;;0.73;0.60;;;;;;;3.24;86.95;94203.31;5058436;28;20243;-68
2021/11/28 00:56:42;;;;;;;0.80;0.80;;;;;;;3.16;86.05;94195.59;5058663;28;20204;-70
2021/11/28 00:59:09;;;;;;;0.50;0.50;;;;;;;3.14;86.23;94207.19;5059303;28;20219;-67
2021/11/28 01:01:35;;;;;;;3.67;1.10;;;;;;;2.87;87.00;94210.44;5058789;28;20613;-70
2021/11/28 01:04:02;;;;;;;1.40;1.30;;;;;;;3.00;86.81;94215.00;5058906;28;21253;-70
2021/11/28 01:06:30;;;;;;;1.93;1.07;;;;;;;3.25;87.11;94219.75;5059909;28;20929;-71
2021/11/28 01:08:56;;;;;;;0.73;0.73;;;;;;;3.04;86.62;94232.66;5061540;28;20639;-68
2021/11/28 01:11:24;;;;;;;1.60;1.03;;;;;;;3.04;85.74;94232.66;5058652;28;20208;-71
2021/11/28 01:13:50;;;;;;;0.83;0.83;;;;;;;2.98;86.30;94245.56;5056442;28;20337;-70
2021/11/28 01:16:18;;;;;;;3.70;0.60;;;;;;;3.19;86.05;94242.06;5059028;28;20197;-68
2021/11/28 01:18:45;;;;;;;0.70;0.70;;;;;;;3.16;86.01;94241.66;5059624;28;20400;-69
2021/11/28 01:21:12;;;;;;;0.60;0.60;;;;;;;3.16;86.01;94239.84;5059636;28;20214;-72
2021/11/28 01:23:39;;;;;;;1.00;0.90;;;;;;;3.51;85.84;94254.69;5060391;28;20927;-69
2021/11/28 01:26:06;;;;;;;1.60;1.40;;;;;;;3.19;86.59;94256.88;5058807;28;20202;-69
2021/11/28 01:28:33;;;;;;;1.70;1.10;;;;;;;3.08;86.28;94262.53;5058572;28;20877;-69
2021/11/28 01:30:59;;;;;;;0.93;0.93;;;;;;;2.88;87.76;94264.06;5058549;28;20208;-69
2021/11/28 01:33:26;;;;;;;1.30;1.20;;;;;;;2.95;87.73;94257.16;5057802;28;20198;-68
2021/11/28 01:35:53;;;;;;;1.90;1.10;;;;;;;2.97;88.26;94254.41;5058745;28;20215;-69
2021/11/28 01:38:20;;;;;;;2.13;1.43;;;;;;;3.06;88.60;94256.72;5059051;28;20203;-67
2021/11/28 01:40:51;;;;;;;1.40;1.30;;;;;;;3.37;88.17;94252.09;5058256;28;20861;-68
2021/11/28 01:43:18;;;;;;;3.03;2.00;;;;;;;3.22;88.17;94257.34;5057871;28;20218;-68
2021/11/28 01:45:48;;;;;;;2.17;1.67;;;;;;;3.41;87.65;94261.16;5058886;28;20214;-69
2021/11/28 01:48:17;;;;;;;4.30;2.33;;;;;;;3.47;87.83;94261.25;5059053;28;20215;-70
2021/11/28 01:50:46;;;;;;;1.10;1.03;;;;;;;3.55;87.89;94263.72;5058197;28;20232;-70
2021/11/28 01:53:15;;;;;;;3.30;1.20;;;;;;;3.53;87.52;94257.13;5057312;28;20557;-71
2021/11/28 01:55:42;;;;;;;2.47;1.63;;;;;;;3.38;87.54;94251.13;5058438;28;20229;-68
2021/11/28 01:58:10;;;;;;;1.87;1.60;;;;;;;3.45;87.91;94245.00;5058443;28;20214;-68
2021/11/28 02:00:40;;;;;;;1.23;1.20;;;;;;;3.61;87.83;94247.38;5058101;28;20199;-68
2021/11/28 02:03:07;;;;;;;1.77;1.53;;;;;;;3.33;88.14;94243.06;5057303;28;20226;-70
2021/11/28 02:05:34;;;;;;;1.80;1.63;;;;;;;3.24;88.19;94241.53;5058632;28;20222;-71
2021/11/28 02:08:01;;;;;;;0.60;0.60;;;;;;;3.42;88.07;94241.97;5057742;28;20211;-69
2021/11/28 02:10:28;;;;;;;3.83;1.43;;;;;;;3.51;88.15;94240.88;5058153;28;20210;-67
2021/11/28 02:12:54;;;;;;;1.47;0.97;;;;;;;3.55;87.27;94242.09;5058762;28;20385;-71
2021/11/28 02:15:22;;;;;;;2.40;1.43;;;;;;;3.78;87.61;94247.00;5058686;28;20246;-67
2021/11/28 02:17:51;;;;;;;1.80;1.30;;;;;;;3.72;88.06;94239.13;5057674;28;20222;-67
2021/11/28 02:20:20;;;;;;;3.30;1.97;;;;;;;3.38;88.55;94238.91;5059266;28;20223;-72
2021/11/28 02:22:49;;;;;;;3.50;1.63;;;;;;;3.56;88.89;94238.53;5058034;28;20212;-69
2021/11/28 02:25:15;;;;;;;0.93;0.83;;;;;;;3.30;88.96;94236.41;5058029;28;20227;-69
2021/11/28 02:27:42;;;;;;;1.20;1.20;;;;;;;3.50;88.48;94231.44;5058380;28;20204;-68
2021/11/28 02:30:11;;;;;;;1.73;1.63;;;;;;;3.67;88.39;94221.41;5058457;28;20788;-69
2021/11/28 02:32:37;;;;;;;1.30;1.20;;;;;;;3.56;88.68;94222.91;5057779;28;20223;-69
2021/11/28 02:35:05;;;;;;;10.50;2.10;;;;;;;3.54;88.57;94215.28;5057336;28;20399;-70
2021/11/28 02:37:31;;;;;;;2.87;1.93;;;;;;;3.55;88.00;94218.69;5058971;28;20214;-68
2021/11/28 02:39:59;;;;;;;3.33;2.20;;;;;;;3.49;88.80;94219.41;5058393;28;20201;-69
2021/11/28 02:42:26;;;;;;;0.90;0.90;;;;;;;3.23;89.25;94213.91;5058277;28;20210;-70
2021/11/28 02:44:52;;;;;;;1.53;1.33;;;;;;;3.36;88.83;94208.84;5058039;28;20234;-68
2021/11/28 02:47:21;;;;;;;10.00;1.63;;;;;;;3.62;88.01;94213.34;5058149;28;20199;-68
2021/11/28 02:49:48;;;;;;;1.33;1.13;;;;;;;3.49;88.02;94209.00;5060833;28;20212;-68
2021/11/28 02:52:15;;;;;;;0.77;0.77;;;;;;;3.53;87.39;94203.25;5061916;28;20208;-68
2021/11/28 02:54:41;;;;;;;0.90;0.90;;;;;;;3.48;88.34;94210.00;5061940;28;20903;-67
2021/11/28 02:57:10;;;;;;;1.47;1.37;;;;;;;3.78;87.66;94205.31;5062143;28;20210;-68
2021/11/28 02:59:37;;;;;;;2.90;2.03;;;;;;;3.30;88.93;94205.19;5061337;28;20249;-68
2021/11/28 03:02:04;;;;;;;1.10;1.00;;;;;;;3.40;88.31;94207.47;5061518;28;20239;-68
2021/11/28 03:04:31;;;;;;;1.67;1.43;;;;;;;3.10;88.82;94209.31;5060240;28;20229;-67
2021/11/28 03:06:57;;;;;;;2.77;1.53;;;;;;;3.07;89.78;94206.31;5061383;28;20206;-70
2021/11/28 03:09:24;;;;;;;3.47;1.50;;;;;;;3.03;90.04;94211.06;5061685;28;20211;-68
2021/11/28 03:11:50;;;;;;;1.83;1.43;;;;;;;3.12;90.30;94212.56;5061190;28;20206;-70
2021/11/28 03:14:18;;;;;;;1.03;0.90;;;;;;;3.42;89.33;94213.34;5061084;28;20227;-67
2021/11/28 03:16:45;;;;;;;1.17;1.07;;;;;;;3.23;89.90;94213.91;5060275;28;20226;-69
2021/11/28 03:19:11;;;;;;;3.30;1.87;;;;;;;3.32;89.06;94215.41;5060217;28;20208;-67
2021/11/28 03:21:39;;;;;;;2.03;1.03;;;;;;;3.30;89.15;94212.19;5060509;28;20205;-70
2021/11/28 03:24:06;;;;;;;2.00;1.90;;;;;;;3.49;89.21;94219.41;5061476;28;20272;-70
2021/11/28 03:26:36;;;;;;;1.20;1.20;;;;;;;3.71;88.79;94201.03;5061693;28;20225;-68
2021/11/28 03:29:05;;;;;;;2.67;1.90;;;;;;;3.47;89.22;94192.75;5060642;28;20214;-68
2021/11/28 03:31:36;;;;;;;1.77;1.40;;;;;;;3.57;89.05;94193.28;5061233;28;20208;-67
2021/11/28 03:34:03;;;;;;;1.20;1.03;;;;;;;3.43;89.36;94192.31;5060448;28;20794;-69
2021/11/28 03:36:31;;;;;;;2.63;1.93;;;;;;;3.49;89.77;94188.16;5061569;28;20207;-67
2021/11/28 03:38:59;;;;;;;1.37;1.27;;;;;;;3.58;89.12;94184.47;5061457;28;20212;-71
2021/11/28 03:41:29;;;;;;;1.20;1.10;;;;;;;3.73;88.82;94183.44;5061869;28;20222;-71
2021/11/28 03:43:57;;;;;;;1.53;1.37;;;;;;;3.70;88.48;94178.59;5060528;28;20228;-70
2021/11/28 03:46:24;;;;;;;1.00;1.00;;;;;;;3.49;87.89;94180.34;5061070;28;20222;-70
2021/11/28 03:48:51;;;;;;;1.40;1.17;;;;;;;3.74;88.22;94177.22;5059084;28;20215;-68
2021/11/28 03:51:18;;;;;;;2.33;1.40;;;;;;;3.52;87.89;94180.00;5058262;28;21264;-68
2021/11/28 03:53:45;;;;;;;0.80;0.80;;;;;;;3.57;87.57;94177.66;5053082;28;20221;-68
2021/11/28 03:56:11;;;;;;;1.70;1.60;;;;;;;3.20;88.74;94188.25;5058311;28;20206;-69
2021/11/28 03:58:39;;;;;;;2.10;1.77;;;;;;;3.46;88.54;94180.72;5058231;28;20219;-69
2021/11/28 04:01:07;;;;;;;2.37;1.27;;;;;;;3.31;89.17;94182.56;5057830;28;20239;-68
2021/11/28 04:03:35;;;;;;;3.67;2.17;;;;;;;3.41;89.46;94185.69;5057449;28;20235;-68
2021/11/28 04:06:03;;;;;;;0.70;0.53;;;;;;;3.55;89.03;94184.84;5057915;28;20201;-68
2021/11/28 04:08:29;;;;;;;3.07;2.13;;;;;;;3.30;89.22;94192.16;5057785;28;20204;-69
2021/11/28 04:10:56;;;;;;;2.73;1.70;;;;;;;3.37;88.24;94195.66;5057934;28;20324;-69
2021/11/28 04:13:23;;;;;;;8.20;2.00;;;;;;;3.28;88.40;94191.53;5057349;28;20208;-68
2021/11/28 04:15:49;;;;;;;2.23;1.30;;;;;;;3.36;88.22;94193.22;5057370;28;21056;-69
2021/11/28 04:18:16;;;;;;;0.77;0.77;;;;;;;3.34;88.44;94188.22;5057878;28;20204;-69
2021/11/28 04:20:43;;;;;;;2.93;1.33;;;;;;;3.40;88.29;94187.50;5057557;28;20207;-68
2021/11/28 04:23:12;;;;;;;3.23;1.80;;;;;;;3.63;88.70;94178.53;5057024;28;20203;-69
2021/11/28 04:25:39;;;;;;;1.20;1.10;;;;;;;3.51;87.97;94181.00;5057952;28;20227;-69
2021/11/28 04:28:06;;;;;;;2.80;1.87;;;;;;;3.62;87.75;94170.09;5057657;28;20936;-68
2021/11/28 04:30:33;;;;;;;2.77;2.13;;;;;;;3.52;87.81;94164.38;5056756;28;20212;-69
2021/11/28 04:33:00;;;;;;;1.53;1.43;;;;;;;3.46;88.10;94159.91;5055612;28;20203;-69
2021/11/28 04:35:27;;;;;;;2.50;1.73;;;;;;;3.52;87.69;94165.19;5057020;28;20228;-68
2021/11/28 04:37:53;;;;;;;1.17;1.07;;;;;;;3.36;88.11;94162.81;5057858;28;20208;-68
2021/11/28 04:40:21;;;;;;;3.50;1.93;;;;;;;3.66;87.63;94157.31;5056959;28;21060;-68
2021/11/28 04:42:48;;;;;;;1.47;1.17;;;;;;;3.17;88.71;94170.38;5056746;28;20197;-69
2021/11/28 04:45:15;;;;;;;1.03;0.90;;;;;;;3.21;89.30;94161.25;5057660;28;20234;-68
2021/11/28 04:47:42;;;;;;;0.73;0.73;;;;;;;3.25;88.95;94167.69;5056950;28;20203;-68
2021/11/28 04:50:13;;;;;;;1.50;1.40;;;;;;;3.71;87.96;94173.19;5056924;28;20207;-68
2021/11/28 04:52:40;;;;;;;1.43;1.30;;;;;;;3.44;88.07;94180.91;5056516;28;20204;-69
2021/11/28 04:55:09;;;;;;;1.63;1.53;;;;;;;3.51;87.98;94178.38;5057406;28;20235;-69
2021/11/28 04:57:36;;;;;;;5.93;1.47;;;;;;;3.58;88.01;94174.03;5055715;28;20200;-69
2021/11/28 05:00:07;;;;;;;8.33;1.83;;;;;;;3.70;87.09;94178.59;5056298;28;20573;-68
2021/11/28 05:02:34;;;;;;;2.13;1.67;;;;;;;3.30;88.39;94176.56;5055766;28;20224;-68
2021/11/28 05:05:00;;;;;;;1.57;1.47;;;;;;;3.18;89.12;94182.41;5056592;28;20231;-68
2021/11/28 05:07:26;;;;;;;1.73;1.43;;;;;;;3.32;88.15;94181.56;5056552;28;20209;-69
2021/11/28 05:09:53;;;;;;;2.93;2.00;;;;;;;3.49;87.70;94183.78;5056557;28;20198;-68
2021/11/28 05:12:19;;;;;;;1.60;1.50;;;;;;;3.37;87.93;94185.22;5055272;28;20771;-69
2021/11/28 05:14:47;;;;;;;1.33;1.23;;;;;;;3.61;88.10;94184.09;5056112;28;20218;-68
2021/11/28 05:17:14;;;;;;;2.53;1.77;;;;;;;3.33;87.95;94180.59;5056383;28;20660;-69
2021/11/28 05:19:40;;;;;;;2.73;2.07;;;;;;;3.04;89.26;94186.66;5057185;28;20210;-68
2021/11/28 05:22:07;;;;;;;2.53;2.30;;;;;;;3.11;89.53;94186.75;5053063;28;20210;-69
2021/11/28 05:24:34;;;;;;;2.13;1.60;;;;;;;3.18;89.62;94185.00;5055806;28;20728;-69
2021/11/28 05:27:00;;;;;;;2.67;1.77;;;;;;;3.21;89.50;94179.47;5056471;28;20208;-67
2021/11/28 05:29:27;;;;;;;0.90;0.90;;;;;;;3.26;89.83;94184.91;5056435;28;20686;-68
2021/11/28 05:31:55;;;;;;;2.20;1.23;;;;;;;3.53;89.21;94194.66;5056353;28;20738;-66
2021/11/28 05:34:21;;;;;;;1.20;1.13;;;;;;;3.31;89.02;94193.78;5057255;28;20212;-68
2021/11/28 05:36:48;;;;;;;1.37;1.27;;;;;;;3.38;88.49;94193.88;5060486;28;20212;-68
2021/11/28 05:39:14;;;;;;;2.10;1.70;;;;;;;3.29;89.02;94198.34;5059828;28;20675;-71
2021/11/28 05:41:41;;;;;;;1.70;1.50;;;;;;;3.30;89.06;94189.56;5059974;28;20223;-68
2021/11/28 05:44:09;;;;;;;0.80;0.80;;;;;;;3.32;89.66;94199.78;5055316;28;20250;-69
2021/11/28 05:46:36;;;;;;;0.90;0.77;;;;;;;3.46;88.93;94197.16;5056076;28;20207;-69
2021/11/28 05:49:04;;;;;;;1.60;1.17;;;;;;;3.85;88.69;94193.16;5056708;28;20301;-68
2021/11/28 05:51:30;;;;;;;3.50;1.63;;;;;;;3.54;88.35;94198.84;5056781;28;20683;-68
2021/11/28 05:53:57;;;;;;;0.80;0.80;;;;;;;3.42;89.07;94202.91;5054908;28;20314;-69
2021/11/28 05:56:23;;;;;;;1.13;1.03;;;;;;;3.44;89.48;94214.75;5056213;28;20214;-69
2021/11/28 05:58:50;;;;;;;1.00;0.87;;;;;;;3.42;89.69;94210.72;5056417;28;20211;-69
2021/11/28 06:01:16;;;;;;;1.40;1.30;;;;;;;3.60;88.38;94204.09;5056413;28;20200;-68
2021/11/28 06:03:43;;;;;;;0.67;0.67;;;;;;;3.49;88.57;94207.22;5055736;28;20230;-68
2021/11/28 06:06:11;;;;;;;1.93;1.50;;;;;;;3.75;88.94;94200.47;5056023;28;20208;-68
2021/11/28 06:08:37;;;;;;;1.47;1.23;;;;;;;3.32;89.54;94205.81;5055995;28;20211;-68
2021/11/28 06:11:04;;;;;;;1.43;1.33;;;;;;;3.36;89.43;94206.25;5055669;28;20208;-68
2021/11/28 06:13:30;;;;;;;3.80;1.80;;;;;;;3.52;89.08;94209.44;5055721;28;20216;-68
2021/11/28 06:15:57;;;;;;;1.50;1.40;;;;;;;3.62;88.70;94203.94;5056173;28;20939;-69
2021/11/28 06:18:23;;;;;;;1.60;1.10;;;;;;;3.45;88.82;94215.56;5056334;28;20216;-68
2021/11/28 06:20:50;;;;;;;1.60;0.70;;;;;;;3.62;88.78;94202.13;5056381;28;20274;-68
2021/11/28 06:23:18;;;;;;;1.70;1.60;;;;;;;3.96;88.46;94212.69;5055516;28;20200;-69
2021/11/28 06:25:44;;;;;;;1.97;1.23;;;;;;;3.52;89.25;94212.03;5059806;28;20228;-69
2021/11/28 06:28:11;;;;;;;3.20;1.30;;;;;;;3.37;89.72;94208.66;5059742;28;20207;-69
2021/11/28 06:30:37;;;;;;;2.23;1.37;;;;;;;3.47;89.34;94201.38;5059781;28;20208;-69
2021/11/28 06:33:04;;;;;;;1.10;1.00;;;;;;;3.58;89.16;94210.50;5059231;28;20319;-69
2021/11/28 06:35:30;;;;;;;1.17;1.07;;;;;;;3.67;88.48;94205.00;5059990;28;20604;-69
2021/11/28 06:37:57;;;;;;;3.50;1.40;;;;;;;3.62;88.64;94203.94;5059034;28;20779;-69
2021/11/28 06:40:25;;;;;;;1.13;1.03;;;;;;;3.83;88.99;94210.78;5059767;28;20218;-68
2021/11/28 06:42:52;;;;;;;4.73;1.20;;;;;;;3.73;88.34;94210.28;5058545;28;20211;-69
2021/11/28 06:45:18;;;;;;;1.30;1.20;;;;;;;3.41;89.22;94214.31;5059464;28;20223;-69
2021/11/28 06:47:45;;;;;;;0.87;0.87;;;;;;;3.67;88.79;94212.81;5059384;28;20209;-69
2021/11/28 06:50:11;;;;;;;1.70;1.60;;;;;;;3.58;88.86;94215.69;5059205;28;20207;-69
2021/11/28 06:52:38;;;;;;;1.37;1.27;;;;;;;3.49;89.62;94212.41;5058829;28;20211;-69
2021/11/28 06:55:06;;;;;;;2.87;2.03;;;;;;;3.76;89.22;94206.50;5058879;28;20227;-69
2021/11/28 06:57:34;;;;;;;2.37;2.07;;;;;;;4.00;88.32;94217.34;5059457;28;20209;-69
2021/11/28 07:00:00;;;;;;;3.60;1.67;;;;;;;3.80;87.82;94216.34;5058675;28;21152;-69
2021/11/28 07:02:27;;;;;;;0.80;0.80;;;;;;;3.79;88.44;94217.38;5058564;28;20219;-69
2021/11/28 07:04:53;;;;;;;2.90;1.50;;;;;;;3.90;87.88;94227.28;5059050;28;20224;-69
2021/11/28 07:07:20;;;;;;;1.00;1.00;;;;;;;3.94;87.60;94223.31;5059937;28;20208;-69
2021/11/28 07:09:46;;;;;;;2.13;1.07;;;;;;;3.89;87.71;94230.06;5059204;28;20205;-69
2021/11/28 07:12:13;;;;;;;2.20;1.30;;;;;;;3.76;88.77;94235.16;5058326;28;20259;-69
2021/11/28 07:14:41;;;;;;;7.23;1.70;;;;;;;4.06;88.40;94237.47;5059305;28;20224;-69
2021/11/28 07:17:07;;;;;;;0.80;0.80;;;;;;;3.81;88.80;94238.81;5059199;28;20246;-69
2021/11/28 07:19:35;;;;;;;1.47;1.37;;;;;;;3.87;88.56;94238.06;5059288;28;20217;-69
2021/11/28 07:22:01;;;;;;;1.90;1.70;;;;;;;3.72;89.21;94231.31;5058853;28;20211;-69
2021/11/28 07:24:28;;;;;;;2.30;1.40;;;;;;;3.77;89.55;94229.75;5059384;28;20242;-69
2021/11/28 07:26:55;;;;;;;2.87;1.30;;;;;;;3.66;89.53;94230.22;5058903;28;20200;-69
2021/11/28 07:29:21;;;;;;;1.00;1.00;;;;;;;3.66;89.86;94229.41;5058584;28;20197;-69
2021/11/28 07:31:56;;;;;;;2.23;1.73;;;;;;;4.23;89.07;94223.19;5058773;28;20204;-69
2021/11/28 07:34:23;;;;;;;1.67;1.57;;;;;;;3.89;89.30;94230.06;5057268;28;21171;-69
2021/11/28 07:36:49;;;;;;;1.40;1.30;;;;;;;4.03;88.69;94237.81;5058318;28;20219;-69
2021/11/28 07:39:16;;;;;;;1.63;1.07;;;;;;;3.93;88.68;94239.13;5058885;28;20203;-69
2021/11/28 07:41:42;;;;;;;6.07;4.13;;;;;;;4.02;88.47;94235.41;5058990;28;20211;-69
2021/11/28 07:44:09;;;;;;;5.07;3.10;;;;;;;3.88;88.28;94237.09;5057282;28;20239;-69
2021/11/28 07:46:35;;;;;;;4.67;1.83;;;;;;;4.04;88.25;94234.22;5058641;28;20226;-69
2021/11/28 07:49:03;;;;;;;2.27;2.07;;;;;;;4.23;88.54;94236.22;5058111;28;20320;-69
2021/11/28 07:51:30;;;;;;;1.20;1.10;;;;;;;4.05;88.45;94246.28;5058196;28;20568;-69
2021/11/28 07:53:57;;;;;;;1.90;1.43;;;;;;;4.19;88.08;94247.19;5057661;28;20228;-69
2021/11/28 07:56:24;;;;;;;2.10;1.40;;;;;;;4.21;87.85;94240.78;5058307;28;21071;-69
2021/11/28 07:58:51;;;;;;;3.93;1.47;;;;;;;4.90;95.39;94238.13;5058021;28;20215;-69
2021/11/28 08:01:17;;;;;;;6.57;1.73;;;;;;;5.63;94.51;94233.91;5058171;28;20207;-69
2021/11/28 08:03:44;;;;;;;2.53;1.60;;;;;;;6.55;87.81;94221.63;5057503;28;20227;-69
2021/11/28 08:06:12;;;;;;;3.67;1.80;;;;;;;7.21;83.78;94223.19;5058099;28;20216;-69
2021/11/28 08:08:38;;;;;;;3.00;2.03;;;;;;;7.36;80.98;94225.34;5058499;28;20209;-69
2021/11/28 08:11:05;;;;;;;2.93;1.77;;;;;;;7.85;79.23;94228.16;5057452;28;20200;-69
2021/11/28 08:13:32;;;;;;;3.03;1.97;;;;;;;8.13;77.05;94226.00;5054824;28;20200;-69
2021/11/28 08:15:59;;;;;;;3.43;1.27;;;;;;;8.48;75.19;94227.22;5057627;28;20231;-69
2021/11/28 08:18:25;;;;;;;7.57;3.50;;;;;;;7.67;73.78;94222.81;5056784;28;20802;-69
2021/11/28 08:20:52;;;;;;;2.73;1.80;;;;;;;7.19;74.18;94225.19;5058057;28;21305;-69
2021/11/28 08:23:20;;;;;;;2.67;2.27;;;;;;;6.34;77.39;94224.44;5057514;28;20201;-69
2021/11/28 08:25:46;;;;;;;2.97;2.27;;;;;;;5.68;79.51;94226.28;5057075;28;20239;-69
2021/11/28 08:28:13;;;;;;;3.77;2.53;;;;;;;5.51;80.78;94235.44;5057310;28;20200;-69
2021/11/28 08:30:41;;;;;;;3.50;2.33;;;;;;;5.45;81.02;94238.84;5056796;28;20219;-69
2021/11/28 08:33:07;;;;;;;3.73;2.10;;;;;;;5.51;82.10;94241.50;5056652;28;20210;-69
2021/11/28 08:35:34;;;;;;;9.83;2.17;;;;;;;5.27;82.87;94242.97;5054808;28;20449;-69
2021/11/28 08:38:02;;;;;;;1.83;1.67;;;;;;;5.27;82.72;94243.78;5054599;28;20211;-68
2021/11/28 08:40:30;;;;;;;3.03;1.87;;;;;;;4.82;83.72;94241.72;5055552;28;20207;-69
2021/11/28 08:42:56;;;;;;;4.33;1.63;;;;;;;4.87;83.74;94235.91;5056402;28;20204;-69
2021/11/28 08:45:23;;;;;;;1.87;1.67;;;;;;;5.05;83.40;94242.25;5056819;28;20248;-69
2021/11/28 08:47:49;;;;;;;3.07;1.93;;;;;;;4.99;83.36;94237.78;5056638;28;20598;-69
2021/11/28 08:50:17;;;;;;;2.63;1.80;;;;;;;5.02;84.08;94242.63;5057073;28;20208;-69
2021/11/28 08:52:45;;;;;;;2.80;1.47;;;;;;;4.94;84.12;94247.19;5056598;28;20205;-69
2021/11/28 08:55:12;;;;;;;5.43;1.43;;;;;;;4.91;85.33;94255.41;5056753;28;20216;-69
2021/11/28 08:57:40;;;;;;;4.53;2.20;;;;;;;4.93;85.34;94250.81;5057434;28;20259;-69
2021/11/28 09:00:09;;;;;;;4.00;2.07;;;;;;;5.02;85.13;94247.03;5056572;28;20200;-69
2021/11/28 09:02:36;;;;;;;2.10;1.37;;;;;;;4.30;86.19;94250.91;5055358;28;20216;-69
2021/11/28 09:05:02;;;;;;;2.37;2.07;;;;;;;4.76;85.80;94254.72;5056614;28;20236;-69
2021/11/28 09:07:29;;;;;;;2.63;1.33;;;;;;;4.40;86.79;94261.03;5056364;28;20295;-69
2021/11/28 09:09:55;;;;;;;4.33;2.30;;;;;;;4.78;85.91;94259.72;5056734;28;20200;-69
2021/11/28 09:12:22;;;;;;;5.23;1.97;;;;;;;4.95;85.33;94262.66;5056055;28;20201;-69
2021/11/28 09:14:50;;;;;;;12.37;2.03;;;;;;;5.05;86.19;94259.69;5056104;28;20228;-69
2021/11/28 09:17:17;;;;;;;3.23;1.87;;;;;;;5.05;85.27;94259.69;5056542;28;20227;-69
2021/11/28 09:19:48;;;;;;;2.80;2.30;;;;;;;5.13;85.43;94259.53;5056685;28;20228;-69
2021/11/28 09:22:22;;;;;;;6.90;3.30;;;;;;;4.87;85.24;94259.38;5055799;28;20200;-69
2021/11/28 09:24:48;;;;;;;6.67;3.07;;;;;;;4.84;85.63;94262.38;5055463;28;20219;-69
2021/11/28 09:27:20;;;;;;;6.63;3.27;;;;;;;4.91;86.38;94264.03;5055820;28;20211;-69
2021/11/28 09:29:47;;;;;;;6.20;3.43;;;;;;;5.35;86.00;94264.50;5053388;28;20943;-69
2021/11/28 09:32:17;;;;;;;2.33;2.10;;;;;;;5.50;86.04;94270.41;5054620;28;20208;-69
2021/11/28 09:34:43;;;;;;;9.27;3.73;;;;;;;5.22;84.85;94269.66;5055377;28;20735;-69
2021/11/28 09:37:11;;;;;;;4.23;2.57;;;;;;;5.21;85.33;94262.03;5055608;28;20200;-69
2021/11/28 09:39:41;;;;;;;4.90;3.10;;;;;;;5.65;85.34;94260.63;5055074;28;20211;-69
2021/11/28 09:42:09;;;;;;;4.93;2.80;;;;;;;5.31;85.21;94262.47;5055395;28;20201;-69
2021/11/28 09:44:38;;;;;;;8.53;3.73;;;;;;;5.40;85.94;94264.72;5055792;28;20232;-69
2021/11/28 09:47:09;;;;;;;3.03;2.03;;;;;;;5.45;85.92;94265.75;5055239;28;20251;-69
2021/11/28 09:49:38;;;;;;;5.13;3.03;;;;;;;5.76;84.36;94260.91;5055273;28;20228;-69
2021/11/28 09:52:06;;;;;;;3.77;2.33;;;;;;;5.66;84.38;94257.00;5055248;28;20215;-68
2021/11/28 09:54:36;;;;;;;4.40;2.40;;;;;;;5.17;84.75;94261.59;5055544;28;20227;-69
2021/11/28 09:57:03;;;;;;;4.77;2.97;;;;;;;5.38;83.61;94264.09;5055085;28;20371;-69
2021/11/28 09:59:31;;;;;;;2.73;2.50;;;;;;;5.65;84.05;94255.38;5055763;28;20996;-69
2021/11/28 10:01:58;;;;;;;4.33;2.97;;;;;;;5.50;83.76;94252.13;5055536;28;20215;-69
2021/11/28 10:04:24;;;;;;;6.77;2.87;;;;;;;5.45;83.75;94257.13;5054725;28;20228;-69
2021/11/28 10:06:53;;;;;;;4.47;2.60;;;;;;;5.71;84.02;94258.03;5055175;28;20229;-69
2021/11/28 10:09:20;;;;;;;3.63;2.77;;;;;;;5.52;83.40;94261.38;5055536;28;20208;-69
2021/11/28 10:12:17;;;;;;;2.50;2.30;;;;;;;6.09;83.53;94259.19;5055354;28;20197;-69
2021/11/28 10:14:46;;;;;;;2.80;2.40;;;;;;;5.80;82.97;94262.09;5055351;28;20227;-70
2021/11/28 10:17:13;;;;;;;3.93;1.87;;;;;;;5.90;83.91;94253.91;5055967;28;20894;-69
2021/11/28 10:19:40;;;;;;;3.43;2.17;;;;;;;5.98;82.25;94251.13;5054936;28;20200;-69
2021/11/28 10:22:08;;;;;;;7.93;3.63;;;;;;;6.02;83.75;94253.16;5055223;28;20215;-69
2021/11/28 10:24:35;;;;;;;3.97;2.10;;;;;;;6.12;83.20;94249.16;5055371;28;20219;-69
2021/11/28 10:27:06;;;;;;;4.43;3.40;;;;;;;6.22;82.67;94246.97;5054096;28;20228;-69
2021/11/28 10:29:36;;;;;;;2.87;2.47;;;;;;;5.51;83.56;94246.72;5054634;28;20204;-69
2021/11/28 10:32:04;;;;;;;1.83;1.47;;;;;;;5.10;83.72;94252.91;5054896;28;20204;-69
2021/11/28 10:34:33;;;;;;;2.43;1.93;;;;;;;5.13;85.81;94247.31;5054117;28;20692;-69
2021/11/28 10:37:06;;;;;;;1.90;1.33;;;;;;;5.64;83.42;94251.19;5054417;28;20691;-69
2021/11/28 10:39:40;;;;;;;3.40;2.60;;;;;;;5.36;83.80;94250.47;5054669;28;20295;-69
2021/11/28 10:42:09;;;;;;;1.40;1.30;;;;;;;4.98;84.18;94254.44;5054517;28;20668;-69
2021/11/28 10:44:35;;;;;;;3.57;3.00;;;;;;;5.27;82.96;94249.00;5051725;28;20228;-69
2021/11/28 10:47:08;;;;;;;3.80;3.00;;;;;;;5.55;83.27;94245.31;5053479;28;20222;-69
2021/11/28 10:49:39;;;;;;;4.10;2.47;;;;;;;5.86;81.67;94242.25;5054673;28;20292;-69
2021/11/28 10:52:11;;;;;;;6.10;3.47;;;;;;;5.61;82.95;94241.94;5053396;28;21153;-69
2021/11/28 10:54:44;;;;;;;3.57;2.40;;;;;;;5.49;82.94;94240.88;5053732;28;20233;-69
2021/11/28 10:57:21;;;;;;;6.00;3.07;;;;;;;6.03;81.85;94240.88;5054186;28;20273;-69
2021/11/28 10:59:59;;;;;;;3.80;2.37;;;;;;;5.94;81.93;94229.78;5053893;28;20205;-69
2021/11/28 11:02:28;;;;;;;4.03;2.43;;;;;;;6.06;81.99;94234.25;5053901;28;20239;-69
2021/11/28 11:04:56;;;;;;;3.27;2.23;;;;;;;5.77;81.85;94232.97;5053714;28;20221;-69
2021/11/28 11:07:24;;;;;;;5.57;3.03;;;;;;;6.04;82.04;94241.47;5053675;28;20242;-69
2021/11/28 11:09:53;;;;;;;3.13;2.83;;;;;;;5.87;81.58;94239.44;5054919;28;20836;-69
2021/11/28 11:12:23;;;;;;;3.60;2.80;;;;;;;5.92;81.65;94233.59;5057076;28;20783;-69
2021/11/28 11:14:51;;;;;;;3.77;3.30;;;;;;;5.74;81.22;94230.69;5057015;28;20221;-69
2021/11/28 11:17:19;;;;;;;6.87;2.60;;;;;;;5.90;79.56;94222.56;5058008;28;20208;-69
2021/11/28 11:19:47;;;;;;;2.80;1.67;;;;;;;6.31;78.71;94222.25;5057367;28;20205;-69
2021/11/28 11:22:18;;;;;;;1.40;1.10;;;;;;;6.34;77.71;94227.06;5055179;28;20256;-69
2021/11/28 11:24:51;;;;;;;3.00;1.93;;;;;;;5.94;75.94;94224.56;5058658;28;20232;-69
2021/11/28 11:27:21;;;;;;;4.33;2.23;;;;;;;6.15;78.05;94227.84;5057249;28;20312;-69
2021/11/28 11:29:52;;;;;;;3.73;2.77;;;;;;;6.09;75.91;94231.22;5057344;28;20205;-69
2021/11/28 11:32:20;;;;;;;3.47;2.77;;;;;;;6.30;76.39;94227.66;5057335;28;20201;-69
2021/11/28 11:34:56;;;;;;;2.70;1.90;;;;;;;6.26;75.65;94227.25;5057995;28;20217;-69
2021/11/28 11:37:26;;;;;;;5.23;1.80;;;;;;;6.14;75.53;94223.59;5058427;28;20575;-69
2021/11/28 11:39:53;;;;;;;6.63;1.70;;;;;;;6.21;74.53;94228.84;5056633;28;20200;-69
2021/11/28 11:42:24;;;;;;;3.00;1.63;;;;;;;6.09;75.00;94231.22;5057322;28;20740;-69
2021/11/28 11:44:51;;;;;;;4.77;1.77;;;;;;;6.11;74.75;94231.84;5057478;28;20257;-69
2021/11/28 11:47:19;;;;;;;2.73;1.63;;;;;;;5.94;75.64;94234.22;5058368;28;20219;-69